Time;durP1;ratioP1;P1;durP2;ratioP2;P2;SDS_P1;SDS_P2;PMS_P1;PMS_P2;Temp;Humidity;BMP_temperature;BMP_pressure;BME280_temperature;BME280_humidity;BME280_pressure;Samples;Min_cycle;Max_cycle;Signal;HPM_P1;HPM_P2
2022/10/16 00:01:31;;;;;;;39.63;27.30;;;19.00;81.00;;;;;;5001798;28;20237;-70
2022/10/16 00:04:00;;;;;;;41.57;30.23;;;19.00;81.20;;;;;;5007668;28;20599;-70
2022/10/16 00:06:28;;;;;;;39.53;30.00;;;19.00;81.30;;;;;;5005942;28;20269;-70
2022/10/16 00:08:56;;;;;;;37.73;28.87;;;19.00;81.30;;;;;;5003213;28;20206;-70
2022/10/16 00:11:28;;;;;;;42.77;30.87;;;19.00;81.50;;;;;;5005949;28;20606;-70
2022/10/16 00:13:58;;;;;;;42.17;32.50;;;19.00;81.60;;;;;;5001582;28;20578;-70
2022/10/16 00:16:27;;;;;;;43.57;31.43;;;19.00;81.70;;;;;;5000845;28;20207;-70
2022/10/16 00:18:54;;;;;;;40.67;30.60;;;18.90;81.80;;;;;;5000730;28;20209;-70
2022/10/16 00:21:24;;;;;;;42.87;31.63;;;19.00;81.90;;;;;;5001036;28;21243;-70
2022/10/16 00:23:54;;;;;;;41.67;30.87;;;18.90;82.00;;;;;;5009516;28;20211;-71
2022/10/16 00:26:22;;;;;;;44.43;32.40;;;18.90;82.10;;;;;;5004030;28;20211;-70
2022/10/16 00:28:50;;;;;;;48.47;32.00;;;18.90;82.10;;;;;;5002617;28;20205;-70
2022/10/16 00:31:20;;;;;;;41.67;31.47;;;18.90;82.20;;;;;;5002386;28;20318;-70
2022/10/16 00:33:47;;;;;;;48.80;32.83;;;18.90;82.30;;;;;;5002572;28;20207;-70
2022/10/16 00:36:19;;;;;;;47.10;33.13;;;18.90;82.40;;;;;;5004330;28;20196;-70
2022/10/16 00:38:49;;;;;;;45.87;31.80;;;18.90;82.50;;;;;;5005498;28;20629;-70
2022/10/16 00:41:17;;;;;;;42.30;30.40;;;18.90;82.40;;;;;;5002764;28;20221;-70
2022/10/16 00:43:48;;;;;;;40.60;31.47;;;18.90;82.50;;;;;;5003913;28;20203;-70
2022/10/16 00:46:34;;;;;;;47.20;31.30;;;18.90;82.60;;;;;;5002107;28;20235;-70
2022/10/16 00:49:19;;;;;;;44.23;29.63;;;18.90;82.70;;;;;;5004163;28;20626;-70
2022/10/16 00:51:49;;;;;;;40.03;29.87;;;18.90;82.80;;;;;;5005678;28;20222;-70
2022/10/16 00:54:21;;;;;;;45.30;31.50;;;18.90;82.70;;;;;;5003871;28;20201;-70
2022/10/16 00:56:49;;;;;;;44.50;31.10;;;18.90;82.80;;;;;;5000719;28;20206;-70
2022/10/16 00:59:30;;;;;;;43.77;30.57;;;18.90;82.80;;;;;;5005545;28;20205;-70
2022/10/16 01:01:58;;;;;;;42.30;31.40;;;18.90;82.80;;;;;;5001286;28;20261;-70
2022/10/16 01:04:26;;;;;;;47.17;31.67;;;18.90;82.80;;;;;;5009477;28;20211;-70
2022/10/16 01:07:09;;;;;;;43.30;31.70;;;18.90;82.90;;;;;;5007883;28;20206;-70
2022/10/16 01:09:59;;;;;;;50.47;32.37;;;18.90;83.00;;;;;;5000916;28;20214;-70
2022/10/16 01:12:51;;;;;;;44.57;31.57;;;18.80;82.90;;;;;;5005707;28;20223;-70
2022/10/16 01:15:31;;;;;;;46.13;31.87;;;18.80;82.80;;;;;;5003550;28;20657;-70
2022/10/16 01:18:09;;;;;;;43.40;29.87;;;18.80;82.70;;;;;;5002184;28;20257;-70
2022/10/16 01:21:04;;;;;;;40.13;29.73;;;18.80;82.70;;;;;;5006954;28;20241;-70
2022/10/16 01:23:37;;;;;;;52.37;32.97;;;18.80;83.20;;;;;;5006940;28;20514;-70
2022/10/16 01:26:13;;;;;;;49.97;33.50;;;18.70;83.00;;;;;;5000338;28;20517;-70
2022/10/16 01:28:51;;;;;;;45.77;33.10;;;18.70;83.00;;;;;;5001723;28;20579;-70
2022/10/16 01:31:22;;;;;;;48.77;33.43;;;18.70;83.10;;;;;;4998636;28;20642;-70
2022/10/16 01:34:01;;;;;;;49.10;32.90;;;18.70;83.20;;;;;;5006864;28;20261;-70
2022/10/16 01:36:38;;;;;;;52.03;31.87;;;18.70;83.30;;;;;;5004837;28;20212;-70
2022/10/16 01:39:09;;;;;;;51.43;32.77;;;18.70;83.40;;;;;;5003589;28;20216;-70
2022/10/16 01:41:41;;;;;;;57.40;32.00;;;18.60;83.40;;;;;;5001460;28;20574;-70
2022/10/16 01:44:15;;;;;;;45.87;33.47;;;18.60;83.60;;;;;;5003718;28;20212;-71
2022/10/16 01:46:46;;;;;;;48.53;33.57;;;18.60;83.80;;;;;;5005787;28;20212;-70
2022/10/16 01:49:14;;;;;;;46.97;33.10;;;18.60;83.80;;;;;;5002941;28;20663;-70
2022/10/16 01:51:46;;;;;;;49.13;33.93;;;18.60;83.80;;;;;;5003429;28;20552;-70
2022/10/16 01:54:16;;;;;;;45.63;32.13;;;18.60;83.90;;;;;;5004234;28;20230;-70
2022/10/16 01:56:44;;;;;;;44.30;30.83;;;18.60;84.10;;;;;;5004637;28;20259;-70
2022/10/16 01:59:15;;;;;;;46.77;31.83;;;18.60;84.20;;;;;;5002131;28;20309;-70
2022/10/16 02:01:46;;;;;;;48.07;31.80;;;18.60;84.40;;;;;;5003204;28;20213;-70
2022/10/16 02:04:22;;;;;;;44.43;32.00;;;18.60;84.40;;;;;;5002935;28;20208;-70
2022/10/16 02:06:49;;;;;;;43.00;31.83;;;18.60;84.50;;;;;;5002035;28;20278;-70
2022/10/16 02:09:16;;;;;;;47.47;30.27;;;18.50;84.60;;;;;;5004238;28;20286;-70
2022/10/16 02:11:44;;;;;;;43.50;30.57;;;18.50;84.60;;;;;;5005247;28;20218;-70
2022/10/16 02:14:11;;;;;;;44.10;31.33;;;18.50;84.70;;;;;;5006574;28;20221;-70
2022/10/16 02:16:42;;;;;;;43.70;30.60;;;18.50;84.80;;;;;;4999734;28;20206;-70
2022/10/16 02:19:13;;;;;;;42.13;29.77;;;18.50;84.90;;;;;;5001581;28;20274;-70
2022/10/16 02:22:03;;;;;;;48.70;32.50;;;18.50;85.00;;;;;;5008271;28;20204;-70
2022/10/16 02:24:40;;;;;;;44.57;31.20;;;18.50;85.00;;;;;;4999227;28;20274;-70
2022/10/16 02:27:13;;;;;;;43.17;30.73;;;18.50;85.00;;;;;;5020724;28;20214;-70
2022/10/16 02:29:50;;;;;;;44.17;30.40;;;18.50;85.00;;;;;;5002335;28;20261;-70
2022/10/16 02:32:21;;;;;;;39.00;27.67;;;18.50;84.90;;;;;;5000852;28;20228;-70
2022/10/16 02:34:50;;;;;;;41.93;28.37;;;18.50;84.70;;;;;;5011630;28;20195;-70
2022/10/16 02:37:18;;;;;;;40.73;29.60;;;18.50;84.60;;;;;;5002166;28;20570;-70
2022/10/16 02:39:45;;;;;;;39.83;28.60;;;18.50;84.40;;;;;;5000931;28;20211;-70
2022/10/16 02:42:14;;;;;;;40.73;29.37;;;18.50;84.40;;;;;;5002863;28;20245;-70
2022/10/16 02:44:41;;;;;;;36.60;28.30;;;18.50;84.40;;;;;;5002654;28;20219;-70
2022/10/16 02:47:08;;;;;;;37.17;27.27;;;18.50;84.40;;;;;;5002086;28;20205;-70
2022/10/16 02:49:35;;;;;;;40.07;28.80;;;18.50;84.50;;;;;;5005655;28;20650;-70
2022/10/16 02:52:02;;;;;;;39.10;28.27;;;18.40;84.70;;;;;;5001745;28;20361;-70
2022/10/16 02:54:29;;;;;;;38.37;29.60;;;18.40;84.90;;;;;;5001429;28;20617;-70
2022/10/16 02:56:57;;;;;;;41.00;29.43;;;18.40;85.00;;;;;;5002577;28;20213;-70
2022/10/16 02:59:24;;;;;;;39.40;29.93;;;18.30;85.10;;;;;;5001751;28;20230;-70
2022/10/16 03:01:51;;;;;;;37.53;28.47;;;18.30;85.20;;;;;;5001988;28;20211;-70
2022/10/16 03:04:18;;;;;;;43.10;31.70;;;18.30;85.20;;;;;;5004615;28;20647;-70
2022/10/16 03:06:45;;;;;;;44.50;29.53;;;18.30;85.30;;;;;;5005543;28;20726;-70
2022/10/16 03:09:12;;;;;;;42.97;32.47;;;18.30;85.40;;;;;;5001299;28;20589;-70
2022/10/16 03:11:39;;;;;;;43.20;30.37;;;18.30;85.50;;;;;;5002830;28;20288;-70
2022/10/16 03:14:06;;;;;;;42.37;30.63;;;18.20;85.60;;;;;;5001734;28;20198;-71
2022/10/16 03:16:33;;;;;;;44.60;30.90;;;18.20;85.70;;;;;;5001301;28;20213;-70
2022/10/16 03:19:00;;;;;;;45.63;33.17;;;18.20;85.80;;;;;;5003383;28;20250;-70
2022/10/16 03:21:27;;;;;;;46.87;32.50;;;18.10;85.80;;;;;;5006483;28;20543;-70
2022/10/16 03:23:54;;;;;;;44.63;31.87;;;18.00;86.00;;;;;;5000207;28;20212;-70
2022/10/16 03:26:21;;;;;;;42.50;31.13;;;18.00;86.10;;;;;;4995333;28;20201;-70
2022/10/16 03:28:48;;;;;;;48.53;33.27;;;18.00;86.20;;;;;;5005557;28;20209;-70
2022/10/16 03:31:16;;;;;;;52.33;33.97;;;17.90;86.30;;;;;;4997494;28;20360;-70
2022/10/16 03:33:43;;;;;;;44.60;30.53;;;17.90;86.50;;;;;;4997469;28;20538;-70
2022/10/16 03:36:10;;;;;;;49.17;32.23;;;17.90;86.60;;;;;;5000411;28;20216;-70
2022/10/16 03:38:37;;;;;;;50.87;34.20;;;17.90;86.70;;;;;;5001623;28;20266;-70
2022/10/16 03:41:04;;;;;;;49.43;34.50;;;17.90;86.70;;;;;;5007647;28;20210;-70
2022/10/16 03:43:31;;;;;;;52.07;34.97;;;17.80;86.80;;;;;;5004487;28;20205;-70
2022/10/16 03:45:58;;;;;;;52.87;34.20;;;17.80;87.00;;;;;;5003265;28;20675;-70
2022/10/16 03:48:25;;;;;;;50.87;33.53;;;17.70;87.10;;;;;;5007524;28;20234;-70
2022/10/16 03:50:52;;;;;;;48.23;31.87;;;17.70;87.30;;;;;;5006714;28;20660;-70
2022/10/16 03:53:19;;;;;;;46.40;30.70;;;17.70;87.30;;;;;;5004581;28;20209;-70
2022/10/16 03:55:46;;;;;;;44.30;32.50;;;17.60;87.20;;;;;;5007105;28;20214;-70
2022/10/16 03:58:13;;;;;;;44.60;31.57;;;17.60;87.20;;;;;;5004376;28;20212;-70
2022/10/16 04:00:44;;;;;;;46.23;31.10;;;17.60;87.30;;;;;;5004868;28;20197;-70
2022/10/16 04:03:11;;;;;;;44.40;31.87;;;17.60;87.40;;;;;;5003045;28;20639;-70
2022/10/16 04:05:39;;;;;;;48.97;32.07;;;17.50;87.40;;;;;;5005295;28;21138;-70
2022/10/16 04:08:06;;;;;;;44.63;32.73;;;17.50;87.40;;;;;;5000612;28;20209;-70
2022/10/16 04:10:33;;;;;;;46.40;32.70;;;17.50;87.40;;;;;;5005007;28;20696;-70
2022/10/16 04:13:00;;;;;;;45.03;30.63;;;17.50;87.60;;;;;;5005772;28;20233;-70
2022/10/16 04:15:27;;;;;;;50.30;31.53;;;17.50;87.80;;;;;;5007927;28;20203;-70
2022/10/16 04:17:54;;;;;;;51.03;32.77;;;17.40;87.80;;;;;;5006163;28;20193;-70
2022/10/16 04:20:21;;;;;;;45.50;32.27;;;17.40;87.80;;;;;;5004532;28;20267;-70
2022/10/16 04:22:48;;;;;;;45.10;30.57;;;17.40;87.90;;;;;;5003082;28;20644;-70
2022/10/16 04:25:15;;;;;;;46.23;31.13;;;17.40;88.00;;;;;;5004151;28;20201;-70
2022/10/16 04:27:42;;;;;;;45.63;32.10;;;17.40;88.10;;;;;;5002988;28;20235;-70
2022/10/16 04:30:12;;;;;;;43.00;30.20;;;17.40;88.00;;;;;;5001656;28;20200;-70
2022/10/16 04:32:40;;;;;;;42.70;29.97;;;17.30;88.10;;;;;;5004525;28;20204;-70
2022/10/16 04:35:07;;;;;;;40.80;30.23;;;17.30;88.10;;;;;;5003001;28;20204;-70
2022/10/16 04:37:34;;;;;;;47.23;29.37;;;17.30;88.20;;;;;;5006402;28;20634;-70
2022/10/16 04:40:02;;;;;;;45.87;32.87;;;17.30;88.20;;;;;;5000163;28;20202;-70
2022/10/16 04:42:29;;;;;;;43.57;29.80;;;17.30;88.20;;;;;;5004629;28;20219;-70
2022/10/16 04:44:56;;;;;;;40.67;28.77;;;17.30;88.20;;;;;;5007590;28;20196;-70
2022/10/16 04:47:23;;;;;;;40.97;29.83;;;17.30;88.10;;;;;;5001270;28;20654;-69
2022/10/16 04:49:50;;;;;;;40.07;28.90;;;17.30;88.10;;;;;;5000439;28;20232;-70
2022/10/16 04:52:18;;;;;;;44.57;29.27;;;17.30;88.20;;;;;;5004267;28;20227;-70
2022/10/16 04:54:46;;;;;;;42.73;29.73;;;17.30;88.20;;;;;;5003424;28;20236;-70
2022/10/16 04:57:13;;;;;;;46.37;30.50;;;17.30;88.20;;;;;;5001712;28;20257;-70
2022/10/16 04:59:40;;;;;;;40.30;29.13;;;17.20;88.30;;;;;;5004954;28;20645;-70
2022/10/16 05:02:07;;;;;;;36.77;27.63;;;17.20;88.40;;;;;;5002486;28;20209;-70
2022/10/16 05:04:34;;;;;;;38.40;28.67;;;17.20;88.50;;;;;;5003483;28;20202;-70
2022/10/16 05:07:01;;;;;;;43.73;29.40;;;17.20;88.60;;;;;;5006710;28;20268;-70
2022/10/16 05:09:28;;;;;;;38.37;27.93;;;17.20;88.80;;;;;;4999549;28;20214;-70
2022/10/16 05:11:55;;;;;;;37.03;27.07;;;17.20;88.90;;;;;;5003856;28;20220;-70
2022/10/16 05:14:22;;;;;;;37.47;26.07;;;17.20;88.90;;;;;;5002463;28;20205;-70
2022/10/16 05:16:49;;;;;;;35.93;26.30;;;17.20;88.80;;;;;;5005521;28;20205;-70
2022/10/16 05:19:16;;;;;;;36.33;25.53;;;17.10;88.70;;;;;;5000344;28;20253;-70
2022/10/16 05:21:58;;;;;;;36.47;25.17;;;17.10;88.60;;;;;;5002366;28;20208;-70
2022/10/16 05:24:26;;;;;;;39.13;27.70;;;17.10;88.50;;;;;;5002679;28;20200;-70
2022/10/16 05:26:53;;;;;;;42.87;28.50;;;17.00;88.30;;;;;;5000848;28;20232;-70
2022/10/16 05:29:20;;;;;;;38.53;28.80;;;17.00;88.00;;;;;;5006180;28;20204;-70
2022/10/16 05:31:50;;;;;;;42.13;28.10;;;16.90;88.20;;;;;;5001760;28;20544;-70
2022/10/16 05:34:17;;;;;;;39.27;24.90;;;16.80;88.50;;;;;;5003468;28;20196;-70
2022/10/16 05:36:45;;;;;;;39.23;27.73;;;16.80;88.70;;;;;;5006623;28;20254;-70
2022/10/16 05:39:13;;;;;;;37.37;26.47;;;16.80;88.80;;;;;;5004839;28;20205;-70
2022/10/16 05:41:40;;;;;;;40.03;27.67;;;16.70;89.00;;;;;;5000596;28;20200;-70
2022/10/16 05:44:08;;;;;;;42.17;27.40;;;16.70;88.90;;;;;;5005690;28;20239;-69
2022/10/16 05:46:35;;;;;;;37.20;26.33;;;16.60;88.70;;;;;;5007880;28;20272;-69
2022/10/16 05:49:02;;;;;;;39.53;26.77;;;16.60;88.70;;;;;;5000856;28;20651;-69
2022/10/16 05:51:29;;;;;;;41.13;26.43;;;16.60;88.70;;;;;;5002272;28;20290;-70
2022/10/16 05:53:56;;;;;;;37.00;26.93;;;16.60;88.60;;;;;;4999462;28;20209;-69
2022/10/16 05:56:23;;;;;;;39.67;27.10;;;16.60;88.60;;;;;;5003729;28;20342;-69
2022/10/16 05:58:50;;;;;;;38.83;27.17;;;16.60;88.50;;;;;;5001629;28;20284;-69
2022/10/16 06:01:20;;;;;;;38.80;26.57;;;16.60;88.30;;;;;;5001555;28;20222;-69
2022/10/16 06:03:47;;;;;;;39.30;28.60;;;16.60;87.90;;;;;;5007037;28;20220;-70
2022/10/16 06:06:20;;;;;;;38.07;27.97;;;16.60;87.90;;;;;;5003129;28;20239;-69
2022/10/16 06:08:48;;;;;;;35.67;26.43;;;16.60;88.20;;;;;;5005160;28;20207;-69
2022/10/16 06:11:22;;;;;;;37.17;27.10;;;16.50;88.20;;;;;;5001456;28;20229;-70
2022/10/16 06:13:50;;;;;;;40.63;27.97;;;16.50;88.20;;;;;;5002116;28;20203;-69
2022/10/16 06:16:18;;;;;;;36.93;26.03;;;16.60;88.40;;;;;;5003184;28;20201;-69
2022/10/16 06:18:47;;;;;;;40.87;27.37;;;16.60;88.30;;;;;;5003659;28;20197;-69
2022/10/16 06:21:18;;;;;;;41.40;27.60;;;16.60;88.20;;;;;;5000321;28;20255;-69
2022/10/16 06:23:46;;;;;;;41.17;26.30;;;16.60;88.20;;;;;;5000327;28;20629;-69
2022/10/16 06:26:18;;;;;;;36.20;26.37;;;16.60;88.30;;;;;;5000999;28;20555;-69
2022/10/16 06:28:46;;;;;;;38.47;27.17;;;16.70;88.30;;;;;;5001744;28;20192;-69
2022/10/16 06:31:14;;;;;;;36.93;26.87;;;16.70;88.30;;;;;;5000411;28;20278;-69
2022/10/16 06:33:41;;;;;;;39.13;27.30;;;16.80;88.40;;;;;;5003750;28;20246;-70
2022/10/16 06:36:15;;;;;;;38.40;27.70;;;16.80;88.40;;;;;;5004276;28;20603;-69
2022/10/16 06:38:43;;;;;;;38.90;27.40;;;16.90;88.50;;;;;;4999927;28;20188;-69
2022/10/16 06:41:13;;;;;;;38.77;25.57;;;16.90;88.40;;;;;;4997757;28;20235;-69
2022/10/16 06:43:40;;;;;;;30.37;24.17;;;17.00;88.50;;;;;;5002327;28;20528;-69
2022/10/16 06:46:10;;;;;;;30.90;24.30;;;17.10;88.60;;;;;;5004032;28;20331;-69
2022/10/16 06:48:38;;;;;;;34.37;23.20;;;17.10;88.50;;;;;;4996722;28;20278;-69
2022/10/16 06:51:06;;;;;;;34.57;24.03;;;17.20;88.80;;;;;;4999762;28;20662;-69
2022/10/16 06:53:35;;;;;;;36.30;25.53;;;17.30;88.40;;;;;;4995800;28;20588;-69
2022/10/16 06:56:20;;;;;;;30.83;22.50;;;17.40;87.90;;;;;;4999783;28;20199;-69
2022/10/16 06:58:48;;;;;;;29.50;21.73;;;17.40;88.30;;;;;;4999724;28;20598;-69
2022/10/16 07:01:17;;;;;;;34.67;20.53;;;17.50;88.40;;;;;;5000916;28;20209;-69
2022/10/16 07:03:46;;;;;;;29.13;20.83;;;17.70;88.20;;;;;;4998925;28;20208;-70
2022/10/16 07:06:19;;;;;;;25.80;20.40;;;17.80;87.80;;;;;;5000017;28;20213;-69
2022/10/16 07:08:47;;;;;;;27.47;19.00;;;18.00;87.20;;;;;;5001048;28;20258;-70
2022/10/16 07:11:16;;;;;;;26.70;19.73;;;18.20;86.70;;;;;;5000785;28;20265;-70
2022/10/16 07:13:44;;;;;;;25.00;18.83;;;18.30;86.00;;;;;;5005506;28;20927;-70
2022/10/16 07:16:26;;;;;;;21.63;17.87;;;18.50;85.60;;;;;;5005143;28;20260;-70
2022/10/16 07:18:58;;;;;;;24.23;17.77;;;18.70;85.40;;;;;;5002073;28;20266;-70
2022/10/16 07:21:28;;;;;;;22.50;17.47;;;18.80;85.00;;;;;;5003130;28;20241;-70
2022/10/16 07:24:00;;;;;;;22.17;19.30;;;19.00;84.60;;;;;;5005890;28;20205;-69
2022/10/16 07:26:31;;;;;;;25.23;18.60;;;19.10;84.30;;;;;;5002264;28;20206;-70
2022/10/16 07:28:58;;;;;;;23.30;18.30;;;19.20;83.90;;;;;;5008101;28;20257;-71
2022/10/16 07:31:26;;;;;;;22.83;19.23;;;19.30;83.60;;;;;;5005545;28;20202;-71
2022/10/16 07:33:53;;;;;;;22.10;19.03;;;19.50;83.20;;;;;;5007413;28;20218;-71
2022/10/16 07:36:21;;;;;;;28.97;18.93;;;19.60;82.70;;;;;;5003997;28;20200;-71
2022/10/16 07:38:48;;;;;;;27.13;19.80;;;19.70;82.30;;;;;;5006142;28;20563;-71
2022/10/16 07:41:19;;;;;;;24.77;20.73;;;19.80;82.50;;;;;;5002963;28;20199;-71
2022/10/16 07:43:52;;;;;;;27.20;20.57;;;20.00;81.90;;;;;;5010021;28;20218;-71
2022/10/16 07:46:20;;;;;;;31.03;22.97;;;20.10;81.20;;;;;;5004304;28;20604;-71
2022/10/16 07:48:48;;;;;;;28.63;23.13;;;20.20;80.70;;;;;;5012547;28;20270;-71
2022/10/16 07:51:18;;;;;;;27.07;21.17;;;20.40;80.00;;;;;;5004342;28;20232;-71
2022/10/16 07:53:46;;;;;;;28.20;22.97;;;20.50;79.40;;;;;;5006296;28;20238;-71
2022/10/16 07:56:15;;;;;;;33.53;25.33;;;20.60;79.10;;;;;;5005189;28;20207;-71
2022/10/16 07:58:42;;;;;;;34.93;25.67;;;20.70;78.60;;;;;;5012206;28;20572;-71
2022/10/16 08:01:12;;;;;;;32.30;24.23;;;20.90;78.20;;;;;;5004943;28;20208;-71
2022/10/16 08:03:48;;;;;;;32.80;25.47;;;21.00;77.20;;;;;;5005961;28;20207;-72
2022/10/16 08:06:16;;;;;;;34.00;25.67;;;21.10;76.40;;;;;;5006125;28;20208;-71
2022/10/16 08:08:48;;;;;;;42.00;26.87;;;21.20;76.30;;;;;;5005483;28;20214;-71
2022/10/16 08:11:15;;;;;;;35.00;26.87;;;21.30;75.30;;;;;;5008476;28;20228;-71
2022/10/16 08:13:42;;;;;;;38.10;29.97;;;21.40;74.90;;;;;;5009692;28;20224;-71
2022/10/16 08:16:09;;;;;;;34.47;27.07;;;21.50;74.60;;;;;;5000448;28;20204;-71
2022/10/16 08:18:40;;;;;;;35.60;26.97;;;21.70;74.30;;;;;;5004527;28;20199;-71
2022/10/16 08:21:13;;;;;;;38.07;28.53;;;21.80;73.80;;;;;;5010615;28;20267;-71
2022/10/16 08:23:47;;;;;;;38.23;28.80;;;21.90;73.20;;;;;;5005128;28;20201;-71
2022/10/16 08:26:22;;;;;;;41.90;29.83;;;22.10;72.90;;;;;;5001329;28;20282;-72
2022/10/16 08:28:51;;;;;;;38.00;28.23;;;22.20;72.70;;;;;;5002430;28;20592;-71
2022/10/16 08:31:19;;;;;;;39.63;28.50;;;22.30;72.10;;;;;;5002539;28;20311;-72
2022/10/16 08:33:47;;;;;;;40.17;28.90;;;22.50;71.90;;;;;;4999615;28;20279;-72
2022/10/16 08:36:15;;;;;;;40.03;30.77;;;22.60;71.00;;;;;;5000639;28;20204;-71
2022/10/16 08:38:43;;;;;;;39.70;31.43;;;22.70;70.90;;;;;;5003086;28;20543;-71
2022/10/16 08:41:13;;;;;;;45.00;30.13;;;22.70;69.90;;;;;;5005835;28;20705;-72
2022/10/16 08:43:49;;;;;;;43.07;31.80;;;22.80;69.90;;;;;;5001645;28;20212;-72
2022/10/16 08:46:19;;;;;;;41.37;31.60;;;22.80;68.90;;;;;;5005050;28;20206;-71
2022/10/16 08:48:54;;;;;;;44.53;30.23;;;22.80;69.20;;;;;;5009890;28;20624;-71
2022/10/16 08:51:29;;;;;;;45.97;32.53;;;22.80;69.40;;;;;;5005580;28;20279;-71
2022/10/16 08:54:05;;;;;;;43.60;32.30;;;22.80;69.40;;;;;;5003136;28;20715;-72
2022/10/16 08:56:33;;;;;;;42.13;31.23;;;22.80;69.50;;;;;;5002758;28;20192;-71
2022/10/16 08:59:00;;;;;;;43.60;32.03;;;22.90;69.70;;;;;;5001899;28;20206;-71
2022/10/16 09:01:42;;;;;;;44.10;31.63;;;23.00;69.60;;;;;;5009724;28;20295;-71
2022/10/16 09:04:32;;;;;;;43.97;31.67;;;23.10;69.10;;;;;;5006330;28;20208;-72
2022/10/16 09:07:27;;;;;;;45.47;33.17;;;23.20;68.90;;;;;;5006753;28;20294;-71
2022/10/16 09:10:30;;;;;;;44.97;32.83;;;23.30;68.90;;;;;;5008873;28;20246;-71
2022/10/16 09:13:23;;;;;;;40.77;32.33;;;23.40;68.60;;;;;;5005141;28;20227;-72
2022/10/16 09:16:32;;;;;;;41.20;31.67;;;23.50;67.90;;;;;;5005404;28;20193;-71
2022/10/16 09:19:05;;;;;;;39.03;30.87;;;23.60;67.90;;;;;;5007701;28;20204;-72
2022/10/16 09:21:38;;;;;;;51.97;35.00;;;23.70;67.60;;;;;;5001847;28;20271;-72
2022/10/16 09:24:14;;;;;;;43.33;32.47;;;23.80;66.60;;;;;;5005636;28;20211;-72
2022/10/16 09:26:43;;;;;;;48.73;34.03;;;23.90;66.50;;;;;;5003097;28;20648;-72
2022/10/16 09:29:15;;;;;;;38.13;31.00;;;23.90;66.30;;;;;;4999534;28;20265;-72
2022/10/16 09:31:43;;;;;;;43.63;31.90;;;24.00;66.10;;;;;;5004099;28;20209;-71
2022/10/16 09:34:36;;;;;;;39.27;31.27;;;24.10;66.10;;;;;;5004777;28;20644;-72
2022/10/16 09:37:09;;;;;;;39.87;31.10;;;24.20;65.80;;;;;;5018422;28;20200;-71
2022/10/16 09:39:51;;;;;;;39.30;30.03;;;24.30;65.30;;;;;;5003421;28;20195;-72
2022/10/16 09:42:31;;;;;;;40.00;32.00;;;24.40;65.00;;;;;;5006006;28;20218;-72
2022/10/16 09:44:58;;;;;;;45.33;31.13;;;24.50;64.60;;;;;;5006796;28;20196;-72
2022/10/16 09:47:30;;;;;;;52.83;33.17;;;24.60;63.50;;;;;;5002479;28;20212;-72
2022/10/16 09:50:01;;;;;;;44.87;33.10;;;24.60;63.30;;;;;;5002835;28;20196;-72
2022/10/16 09:52:30;;;;;;;48.40;31.70;;;24.60;63.20;;;;;;5010827;28;20239;-72
2022/10/16 09:54:59;;;;;;;41.97;31.23;;;24.60;63.30;;;;;;5002657;28;20577;-71
2022/10/16 09:57:27;;;;;;;40.63;30.50;;;24.70;63.40;;;;;;5003432;28;20197;-72
2022/10/16 09:59:57;;;;;;;40.57;29.17;;;24.70;63.40;;;;;;5003564;28;20639;-72
2022/10/16 10:02:36;;;;;;;41.40;31.27;;;24.70;62.90;;;;;;5004258;28;20536;-72
2022/10/16 10:05:06;;;;;;;37.47;30.10;;;24.80;62.80;;;;;;5002520;28;20204;-72
2022/10/16 10:07:43;;;;;;;39.43;29.00;;;24.80;62.70;;;;;;5003438;28;20608;-72
2022/10/16 10:10:33;;;;;;;40.03;29.33;;;24.90;63.10;;;;;;5004076;28;20520;-72
2022/10/16 10:13:01;;;;;;;34.67;28.90;;;25.00;63.20;;;;;;4998943;28;20642;-72
2022/10/16 10:15:33;;;;;;;42.40;29.00;;;25.10;62.70;;;;;;5000387;28;20619;-72
2022/10/16 10:18:03;;;;;;;36.37;28.20;;;25.10;61.70;;;;;;5005315;28;20637;-71
2022/10/16 10:20:38;;;;;;;36.50;27.70;;;25.20;61.80;;;;;;5003631;28;20246;-72
2022/10/16 10:23:23;;;;;;;33.67;26.07;;;25.30;61.90;;;;;;5010980;28;20207;-71
2022/10/16 10:25:56;;;;;;;38.27;26.87;;;25.50;61.30;;;;;;5002247;28;20513;-71
2022/10/16 10:28:58;;;;;;;33.37;26.30;;;25.60;60.70;;;;;;5004258;28;20524;-72
2022/10/16 10:31:58;;;;;;;33.13;26.47;;;25.70;60.60;;;;;;5002256;28;20245;-72
2022/10/16 10:34:43;;;;;;;29.63;23.40;;;25.90;59.50;;;;;;5006626;28;20221;-72
2022/10/16 10:37:16;;;;;;;27.50;22.20;;;25.90;58.90;;;;;;5001970;28;20693;-71
2022/10/16 10:40:28;;;;;;;34.53;25.27;;;26.10;58.70;;;;;;5007189;28;20209;-71
2022/10/16 10:43:33;;;;;;;34.10;23.80;;;26.10;58.00;;;;;;5006949;28;20563;-71
2022/10/16 10:46:14;;;;;;;27.17;23.00;;;26.20;58.30;;;;;;4999703;28;20216;-72
2022/10/16 10:49:22;;;;;;;30.57;23.00;;;26.20;58.40;;;;;;5000556;28;20272;-72
2022/10/16 10:51:52;;;;;;;30.57;21.67;;;26.30;58.40;;;;;;5005989;28;20656;-71
2022/10/16 10:54:22;;;;;;;26.87;21.23;;;26.40;58.20;;;;;;5006667;28;20212;-72
2022/10/16 10:56:57;;;;;;;25.13;19.57;;;26.50;57.60;;;;;;5004826;28;20261;-71
2022/10/16 10:59:48;;;;;;;25.67;18.30;;;26.60;56.70;;;;;;5006135;28;20199;-71
2022/10/16 11:02:26;;;;;;;26.07;18.63;;;26.60;56.50;;;;;;5012003;28;20204;-71
2022/10/16 11:05:15;;;;;;;27.57;18.93;;;26.60;55.90;;;;;;5003330;28;20202;-71
2022/10/16 11:08:00;;;;;;;25.33;20.30;;;26.60;56.10;;;;;;5006755;28;20231;-71
2022/10/16 11:10:42;;;;;;;30.30;20.07;;;26.50;55.40;;;;;;5007015;28;20196;-71
2022/10/16 11:13:22;;;;;;;29.40;20.20;;;26.50;55.40;;;;;;5003652;28;20222;-71
2022/10/16 11:15:52;;;;;;;22.87;17.17;;;26.50;55.60;;;;;;5007488;28;20640;-71
2022/10/16 11:18:30;;;;;;;22.20;15.83;;;26.50;55.70;;;;;;5007406;28;20278;-70
2022/10/16 11:21:08;;;;;;;23.67;17.73;;;26.60;54.80;;;;;;5004644;28;20232;-71
2022/10/16 11:23:50;;;;;;;22.33;16.03;;;26.70;54.80;;;;;;5006823;28;20254;-71
2022/10/16 11:26:23;;;;;;;21.13;17.10;;;26.80;55.10;;;;;;5005691;28;20234;-71
2022/10/16 11:28:55;;;;;;;19.33;16.27;;;26.90;54.10;;;;;;5004148;28;20207;-71
2022/10/16 11:31:32;;;;;;;27.27;19.47;;;27.00;54.50;;;;;;5006518;28;20287;-71
2022/10/16 11:34:27;;;;;;;22.43;19.37;;;27.10;54.50;;;;;;5005470;28;20288;-71
2022/10/16 11:37:14;;;;;;;23.20;18.40;;;27.20;53.40;;;;;;5013668;28;20202;-71
2022/10/16 11:39:44;;;;;;;24.00;18.37;;;27.20;53.80;;;;;;5012764;28;20636;-71
2022/10/16 11:42:31;;;;;;;25.30;18.00;;;27.10;53.00;;;;;;5004384;28;20211;-71
2022/10/16 11:45:13;;;;;;;21.60;17.40;;;27.10;53.10;;;;;;5005666;28;20623;-71
2022/10/16 11:47:44;;;;;;;20.10;15.00;;;27.00;52.00;;;;;;5004773;28;20204;-71
2022/10/16 11:50:34;;;;;;;22.57;16.67;;;27.00;52.00;;;;;;5001507;28;20208;-71
2022/10/16 11:53:40;;;;;;;17.47;13.97;;;27.00;52.30;;;;;;5004460;28;20613;-71
2022/10/16 11:56:07;;;;;;;22.73;16.20;;;27.10;51.90;;;;;;5005145;28;20636;-71
2022/10/16 11:58:51;;;;;;;22.33;16.43;;;27.10;51.60;;;;;;5007874;28;20204;-71
2022/10/16 12:01:22;;;;;;;22.87;14.60;;;27.20;51.80;;;;;;5003288;28;20203;-71
2022/10/16 12:04:32;;;;;;;20.67;15.57;;;27.20;52.20;;;;;;5006311;28;20269;-71
2022/10/16 12:07:38;;;;;;;20.50;14.43;;;27.20;52.10;;;;;;5004747;28;20219;-71
2022/10/16 12:10:37;;;;;;;17.20;14.47;;;27.20;51.70;;;;;;5019680;28;20220;-71
2022/10/16 12:13:24;;;;;;;18.63;13.43;;;27.20;51.30;;;;;;5002431;28;20313;-70
2022/10/16 12:15:51;;;;;;;14.83;12.33;;;27.20;51.80;;;;;;5006862;28;20198;-71
2022/10/16 12:18:25;;;;;;;19.83;12.63;;;27.30;51.80;;;;;;5006566;28;20204;-71
2022/10/16 12:21:05;;;;;;;16.10;12.77;;;27.40;51.90;;;;;;5003247;28;20558;-71
2022/10/16 12:23:53;;;;;;;20.60;13.60;;;27.50;52.00;;;;;;5004072;28;20208;-71
2022/10/16 12:26:33;;;;;;;17.73;12.63;;;27.60;51.50;;;;;;5004980;28;20204;-71
2022/10/16 12:29:13;;;;;;;19.53;13.47;;;27.50;51.20;;;;;;4999891;28;20270;-71
2022/10/16 12:31:47;;;;;;;15.53;12.23;;;27.40;50.90;;;;;;5011112;28;20274;-71
2022/10/16 12:34:37;;;;;;;18.60;13.70;;;27.20;51.50;;;;;;5006859;28;20247;-70
2022/10/16 12:37:26;;;;;;;12.83;10.80;;;27.00;51.90;;;;;;5006614;28;20631;-70
2022/10/16 12:39:55;;;;;;;18.93;12.13;;;27.00;52.10;;;;;;5003707;28;20288;-70
2022/10/16 12:42:29;;;;;;;18.53;11.87;;;27.00;52.00;;;;;;5018656;28;20243;-70
2022/10/16 12:44:57;;;;;;;13.20;11.47;;;27.00;51.80;;;;;;5004519;28;20211;-70
2022/10/16 12:47:30;;;;;;;16.27;11.23;;;27.00;52.00;;;;;;5004032;28;20234;-70
2022/10/16 12:49:58;;;;;;;17.97;10.90;;;27.00;51.40;;;;;;5003351;28;20621;-70
2022/10/16 12:52:34;;;;;;;15.70;9.80;;;27.00;50.60;;;;;;5002049;28;20261;-71
2022/10/16 12:55:01;;;;;;;12.33;9.37;;;27.00;51.20;;;;;;5005132;28;20243;-71
2022/10/16 12:57:52;;;;;;;12.57;8.93;;;27.00;49.50;;;;;;5002073;28;20578;-71